createdAt,value
2018-04-25T00:00:16.680Z,4.33
2018-04-25T00:02:43.564Z,3.67
2018-04-25T00:05:10.411Z,4.17
2018-04-25T00:07:37.259Z,4.50
2018-04-25T00:10:04.144Z,4.83
2018-04-25T00:12:31.090Z,5.03
2018-04-25T00:14:57.950Z,4.97
2018-04-25T00:17:25.394Z,4.20
2018-04-25T00:19:52.228Z,4.43
2018-04-25T00:22:19.494Z,4.77
2018-04-25T00:24:46.744Z,4.80
2018-04-25T00:27:13.611Z,4.40
2018-04-25T00:29:40.856Z,3.73
2018-04-25T00:32:07.782Z,4.57
2018-04-25T00:34:34.741Z,4.40
2018-04-25T00:37:01.596Z,4.70
2018-04-25T00:39:28.556Z,4.23
2018-04-25T00:41:55.409Z,5.20
2018-04-25T00:44:22.254Z,4.90
2018-04-25T00:46:49.324Z,4.50
2018-04-25T00:49:16.188Z,5.00
2018-04-25T00:51:43.070Z,4.90
2018-04-25T00:54:10.003Z,4.77
2018-04-25T00:56:37.702Z,4.90
2018-04-25T00:59:04.571Z,4.43
2018-04-25T01:01:31.436Z,4.70
2018-04-25T01:03:58.300Z,4.97
2018-04-25T01:06:25.172Z,5.20
2018-04-25T01:08:52.008Z,4.77
2018-04-25T01:11:18.864Z,4.93
2018-04-25T01:13:45.737Z,4.60
2018-04-25T01:16:12.996Z,5.63
2018-04-25T01:18:42.720Z,4.70
2018-04-25T01:21:09.641Z,4.63
2018-04-25T01:23:36.489Z,4.30
2018-04-25T01:26:03.342Z,4.33
2018-04-25T01:31:26.934Z,4.47
2018-04-25T01:33:59.767Z,4.87
2018-04-25T01:36:29.072Z,4.20
2018-04-25T01:38:55.964Z,4.50
2018-04-25T01:41:22.817Z,4.80
2018-04-25T01:43:50.393Z,4.57
2018-04-25T01:46:24.049Z,4.63
2018-04-25T01:48:54.846Z,4.63
2018-04-25T01:51:33.640Z,4.73
2018-04-25T01:54:20.588Z,4.80
2018-04-25T01:56:59.375Z,4.70
2018-04-25T01:59:38.137Z,4.40
2018-04-25T02:02:04.931Z,4.90
2018-04-25T02:04:32.787Z,5.00
2018-04-25T02:06:59.636Z,5.00
2018-04-25T02:09:26.502Z,4.73
2018-04-25T02:11:53.364Z,4.63
2018-04-25T02:14:20.238Z,4.97
2018-04-25T02:16:48.521Z,4.73
2018-04-25T02:19:15.499Z,5.57
2018-04-25T02:21:42.340Z,5.00
2018-04-25T02:24:09.179Z,4.90
2018-04-25T02:26:36.109Z,5.03
2018-04-25T02:29:02.952Z,5.13
2018-04-25T02:31:29.804Z,5.10
2018-04-25T02:33:56.710Z,4.90
2018-04-25T02:36:23.561Z,5.10
2018-04-25T02:38:50.424Z,5.30
2018-04-25T02:41:17.710Z,4.60
2018-04-25T02:43:44.578Z,4.80
2018-04-25T02:46:11.525Z,5.07
2018-04-25T02:51:24.948Z,5.20
2018-04-25T02:53:51.862Z,4.60
2018-04-25T02:56:18.819Z,4.40
2018-04-25T02:58:45.666Z,4.83
2018-04-25T03:01:12.516Z,4.57
2018-04-25T03:03:39.497Z,5.10
2018-04-25T03:06:06.358Z,5.00
2018-04-25T03:08:33.212Z,4.87
2018-04-25T03:11:00.080Z,5.43
2018-04-25T03:13:26.946Z,4.90
2018-04-25T03:15:53.885Z,5.77
2018-04-25T03:18:22.372Z,4.80
2018-04-25T03:20:49.220Z,5.03
2018-04-25T03:23:16.088Z,5.10
2018-04-25T03:25:43.062Z,5.40
2018-04-25T03:28:09.903Z,5.50
2018-04-25T03:30:36.770Z,5.07
2018-04-25T03:33:03.637Z,5.30
2018-04-25T03:35:30.480Z,4.87
2018-04-25T03:37:57.365Z,4.80
2018-04-25T03:40:24.313Z,5.00
2018-04-25T03:42:51.171Z,5.30
2018-04-25T03:45:18.115Z,5.70
2018-04-25T03:47:44.988Z,5.87
2018-04-25T03:52:57.587Z,5.70
2018-04-25T03:55:24.833Z,5.10
2018-04-25T03:57:51.697Z,5.63
2018-04-25T04:00:18.540Z,5.40
2018-04-25T04:02:45.412Z,6.07
2018-04-25T04:05:12.261Z,5.80
2018-04-25T04:07:39.176Z,5.50
2018-04-25T04:10:08.291Z,6.33
2018-04-25T04:12:35.245Z,5.57
2018-04-25T04:15:02.120Z,6.10
2018-04-25T04:20:14.792Z,5.53
2018-04-25T04:22:41.656Z,5.40
2018-04-25T04:25:08.516Z,5.70
2018-04-25T04:27:35.379Z,6.13
2018-04-25T04:30:02.256Z,5.70
2018-04-25T04:32:29.532Z,5.80
2018-04-25T04:34:56.871Z,6.60
2018-04-25T04:37:23.799Z,5.73
2018-04-25T04:39:51.786Z,6.40
2018-04-25T04:42:18.844Z,6.37
2018-04-25T04:44:45.688Z,5.90
2018-04-25T04:47:12.645Z,6.90
2018-04-25T04:49:39.483Z,5.37
2018-04-25T04:52:06.337Z,6.37
2018-04-25T04:54:33.317Z,5.70
2018-04-25T04:57:00.223Z,5.57
2018-04-25T04:59:27.716Z,6.07
2018-04-25T05:01:54.598Z,5.87
2018-04-25T05:04:21.455Z,6.10
2018-04-25T05:06:48.327Z,6.23
2018-04-25T05:09:15.276Z,5.80
2018-04-25T05:11:42.112Z,6.50
2018-04-25T05:14:12.172Z,6.07
2018-04-25T05:16:39.032Z,6.60
2018-04-25T05:21:39.339Z,6.57
2018-04-25T05:24:06.251Z,6.40
2018-04-25T05:29:18.933Z,8.70
2018-04-25T05:31:47.127Z,9.30
2018-04-25T05:34:13.973Z,8.70
2018-04-25T05:36:40.927Z,8.80
2018-04-25T05:39:07.825Z,8.63
2018-04-25T05:41:34.721Z,9.30
2018-04-25T05:44:01.616Z,9.10
2018-04-25T05:46:28.504Z,9.23
2018-04-25T05:48:55.409Z,10.20
2018-04-25T05:51:22.260Z,10.07
2018-04-25T05:53:49.217Z,9.97
2018-04-25T05:56:16.095Z,10.37
2018-04-25T05:58:42.935Z,8.70
2018-04-25T06:01:09.814Z,9.43
2018-04-25T06:03:36.750Z,8.83
2018-04-25T06:06:03.606Z,9.87
2018-04-25T06:08:30.455Z,9.03
2018-04-25T06:10:57.346Z,9.67
2018-04-25T06:13:24.200Z,9.93
2018-04-25T06:15:51.077Z,8.57
2018-04-25T06:18:17.947Z,10.10
2018-04-25T06:20:44.851Z,10.27
2018-04-25T06:23:13.423Z,9.77
2018-04-25T06:25:40.716Z,9.87
2018-04-25T06:28:07.898Z,10.37
2018-04-25T06:30:34.849Z,9.87
2018-04-25T06:33:01.699Z,9.43
2018-04-25T06:35:28.566Z,10.30
2018-04-25T06:37:55.412Z,9.10
2018-04-25T06:40:22.359Z,9.20
2018-04-25T06:42:49.233Z,10.27
2018-04-25T06:45:16.176Z,9.63
2018-04-25T06:47:43.048Z,9.00
2018-04-25T06:50:10.048Z,8.67
2018-04-25T06:52:36.921Z,9.20
2018-04-25T06:55:04.230Z,9.67
2018-04-25T06:57:31.188Z,8.70
2018-04-25T06:59:58.136Z,8.80
2018-04-25T07:02:26.560Z,9.57
2018-04-25T07:04:53.431Z,9.23
2018-04-25T07:10:06.104Z,8.53
2018-04-25T07:12:33.833Z,9.53
2018-04-25T07:15:00.744Z,8.47
2018-04-25T07:17:28.046Z,8.43
2018-04-25T07:19:54.956Z,9.10
2018-04-25T07:22:21.767Z,8.43
2018-04-25T07:24:48.640Z,8.00
2018-04-25T07:27:15.480Z,9.23
2018-04-25T07:29:42.445Z,9.00
2018-04-25T07:32:09.306Z,7.50
2018-04-25T07:34:36.159Z,8.60
2018-04-25T07:37:03.096Z,10.10
2018-04-25T07:39:30.750Z,9.63
2018-04-25T07:41:59.404Z,9.10
2018-04-25T07:44:26.276Z,9.40
2018-04-25T07:49:38.878Z,8.20
2018-04-25T07:52:05.748Z,9.93
2018-04-25T07:54:33.997Z,9.17
2018-04-25T07:57:00.993Z,9.23
2018-04-25T07:59:29.618Z,9.90
2018-04-25T08:01:56.574Z,10.07
2018-04-25T08:04:23.532Z,10.00
2018-04-25T08:06:50.394Z,9.27
2018-04-25T08:09:19.781Z,9.73
2018-04-25T08:11:46.741Z,10.30
2018-04-25T08:14:25.825Z,9.27
2018-04-25T08:17:04.651Z,9.57
2018-04-25T08:19:39.395Z,9.53
2018-04-25T08:22:06.268Z,9.83
2018-04-25T08:24:33.130Z,9.83
2018-04-25T08:26:59.994Z,10.07
2018-04-25T08:29:27.469Z,10.13
2018-04-25T08:31:54.408Z,9.73
2018-04-25T08:34:21.308Z,10.57
2018-04-25T08:36:48.162Z,10.00
2018-04-25T08:39:17.073Z,9.50
2018-04-25T08:41:43.876Z,10.00
2018-04-25T08:44:10.745Z,9.77
2018-04-25T08:46:37.685Z,9.70
2018-04-25T08:49:04.536Z,10.40
2018-04-25T08:51:31.384Z,10.20
2018-04-25T08:53:58.260Z,9.37
2018-04-25T08:56:25.105Z,10.37
2018-04-25T08:58:52.071Z,9.97
2018-04-25T09:01:18.923Z,10.83
2018-04-25T09:03:45.798Z,10.43
2018-04-25T09:06:12.657Z,9.87
2018-04-25T09:08:39.547Z,9.77
2018-04-25T09:11:06.392Z,9.93
2018-04-25T09:13:33.335Z,9.57
2018-04-25T09:16:00.313Z,9.83
2018-04-25T09:18:27.336Z,8.60
2018-04-25T09:20:54.299Z,8.03
2018-04-25T09:23:21.152Z,7.77
2018-04-25T09:25:48.000Z,9.40
2018-04-25T09:28:14.908Z,8.53
2018-04-25T09:30:41.831Z,9.20
2018-04-25T09:33:08.777Z,8.30
2018-04-25T09:35:35.745Z,8.80
2018-04-25T09:38:02.716Z,9.23
2018-04-25T09:40:29.617Z,9.87
2018-04-25T09:42:56.867Z,9.07
2018-04-25T09:45:23.747Z,9.17
2018-04-25T09:47:50.695Z,8.83
2018-04-25T09:50:17.610Z,9.67
2018-04-25T09:55:30.501Z,7.97
2018-04-25T09:57:57.397Z,8.10
2018-04-25T10:00:24.232Z,8.43
2018-04-25T10:02:51.117Z,8.30
2018-04-25T10:05:18.421Z,8.27
2018-04-25T10:07:45.272Z,8.30
2018-04-25T10:10:12.179Z,12.23
2018-04-25T10:12:39.163Z,13.10
2018-04-25T10:15:06.411Z,12.60
2018-04-25T10:17:33.696Z,8.63
2018-04-25T10:20:00.677Z,8.03
2018-04-25T10:22:27.663Z,7.03
2018-04-25T10:24:54.540Z,8.50
2018-04-25T10:27:21.387Z,11.53
2018-04-25T10:29:48.296Z,7.40
2018-04-25T10:32:15.188Z,6.40
2018-04-25T10:34:42.028Z,7.93
2018-04-25T10:37:08.875Z,8.67
2018-04-25T10:39:47.537Z,8.67
2018-04-25T10:42:14.467Z,7.90
2018-04-25T10:44:42.488Z,7.97
2018-04-25T10:47:09.452Z,9.30
2018-04-25T10:52:22.496Z,9.37
2018-04-25T10:54:49.337Z,7.50
2018-04-25T10:57:16.233Z,7.90
2018-04-25T10:59:43.135Z,8.03
2018-04-25T11:02:10.437Z,7.87
2018-04-25T11:04:37.354Z,8.17
2018-04-25T11:07:04.432Z,7.27
2018-04-25T11:09:31.324Z,7.33
2018-04-25T11:11:58.243Z,6.87
2018-04-25T11:14:25.102Z,6.70
2018-04-25T11:16:51.976Z,7.00
2018-04-25T11:19:18.835Z,7.13
2018-04-25T11:21:45.791Z,6.47
2018-04-25T11:24:12.673Z,7.10
2018-04-25T11:26:39.640Z,6.70
2018-04-25T11:31:53.052Z,6.07
2018-04-25T11:34:20.309Z,7.33
2018-04-25T11:36:47.545Z,6.60
2018-04-25T11:39:14.400Z,6.50
2018-04-25T11:41:41.268Z,5.90
2018-04-25T11:44:08.178Z,6.23
2018-04-25T11:46:35.714Z,6.03
2018-04-25T11:49:02.596Z,7.10
2018-04-25T11:51:29.531Z,6.37
2018-04-25T11:53:56.788Z,5.53
2018-04-25T11:56:23.815Z,6.17
2018-04-25T11:58:50.656Z,5.80
2018-04-25T12:01:17.597Z,5.20
2018-04-25T12:03:44.869Z,5.10
2018-04-25T12:08:44.285Z,7.80
2018-04-25T12:11:11.162Z,6.37
2018-04-25T12:13:38.432Z,6.50
2018-04-25T12:16:05.671Z,7.30
2018-04-25T12:18:32.577Z,6.00
2018-04-25T12:20:59.459Z,7.23
2018-04-25T12:23:29.821Z,5.90
2018-04-25T12:25:56.741Z,6.23
2018-04-25T12:28:23.581Z,5.13
2018-04-25T12:30:50.462Z,6.30
2018-04-25T12:33:17.339Z,4.90
2018-04-25T12:35:44.356Z,5.73
2018-04-25T12:38:11.234Z,6.40
2018-04-25T12:40:38.113Z,5.37
2018-04-25T12:43:05.049Z,4.90
2018-04-25T12:45:31.897Z,5.07
2018-04-25T12:47:58.777Z,4.00
2018-04-25T12:50:25.632Z,4.03
2018-04-25T12:52:52.599Z,4.40
2018-04-25T12:55:19.651Z,4.70
2018-04-25T12:57:46.611Z,4.20
2018-04-25T13:00:13.563Z,4.47
2018-04-25T13:02:43.457Z,5.20
2018-04-25T13:05:10.759Z,5.00
2018-04-25T13:07:37.649Z,2.73
2018-04-25T13:10:04.576Z,2.40
2018-04-25T13:12:33.213Z,2.30
2018-04-25T13:15:00.119Z,2.00
2018-04-25T13:17:29.976Z,2.80
2018-04-25T13:19:59.137Z,2.27
2018-04-25T13:22:26.396Z,2.50
2018-04-25T13:24:53.709Z,2.80
2018-04-25T13:27:20.580Z,2.17
2018-04-25T13:29:47.632Z,2.67
2018-04-25T13:32:14.496Z,3.43
2018-04-25T13:37:27.616Z,2.80
2018-04-25T13:39:54.869Z,2.60
2018-04-25T13:42:22.147Z,2.33
2018-04-25T13:44:53.181Z,2.53
2018-04-25T13:47:22.196Z,2.63
2018-04-25T13:49:49.053Z,2.23
2018-04-25T13:52:15.939Z,2.50
2018-04-25T13:54:43.223Z,2.40
2018-04-25T13:57:10.118Z,2.80
2018-04-25T13:59:37.160Z,2.63
2018-04-25T14:02:04.021Z,2.80
2018-04-25T14:04:30.985Z,2.23
2018-04-25T14:06:57.958Z,2.20
2018-04-25T14:09:24.836Z,2.80
2018-04-25T14:11:52.105Z,2.80
2018-04-25T14:14:19.412Z,2.50
2018-04-25T14:16:51.902Z,2.60
2018-04-25T14:19:18.872Z,2.63
2018-04-25T14:21:45.827Z,2.60
2018-04-25T14:24:12.743Z,2.03
2018-04-25T14:26:39.983Z,2.60
2018-04-25T14:29:06.904Z,2.47
2018-04-25T14:31:35.924Z,2.60
2018-04-25T14:34:02.833Z,2.30
2018-04-25T14:36:30.104Z,2.60
2018-04-25T14:38:57.030Z,2.60
2018-04-25T14:41:23.952Z,2.73
2018-04-25T14:43:50.804Z,3.00
2018-04-25T14:46:17.762Z,2.83
2018-04-25T14:48:44.628Z,2.80
2018-04-25T14:51:11.496Z,2.53
2018-04-25T14:53:38.467Z,2.37
2018-04-25T14:56:05.309Z,2.47
2018-04-25T14:58:32.179Z,2.53
2018-04-25T15:00:59.227Z,3.07
2018-04-25T15:03:26.092Z,2.67
2018-04-25T15:05:53.059Z,2.47
2018-04-25T15:08:19.912Z,2.67
2018-04-25T15:10:46.774Z,2.57
2018-04-25T15:13:13.697Z,2.77
2018-04-25T15:15:40.535Z,2.77
2018-04-25T15:18:07.395Z,2.50
2018-04-25T15:20:34.643Z,2.40
2018-04-25T15:23:01.896Z,2.20
2018-04-25T15:25:28.923Z,2.40
2018-04-25T15:27:56.096Z,2.50
2018-04-25T15:30:23.217Z,2.43
2018-04-25T15:32:52.172Z,2.53
2018-04-25T15:35:19.096Z,2.90
2018-04-25T15:37:45.953Z,2.30
2018-04-25T15:40:12.820Z,2.63
2018-04-25T15:42:41.948Z,2.73
2018-04-25T15:45:23.788Z,3.20
2018-04-25T15:47:51.067Z,2.33
2018-04-25T15:50:17.937Z,3.20
2018-04-25T15:52:44.783Z,3.17
2018-04-25T15:55:12.035Z,3.27
2018-04-25T15:57:39.296Z,2.87
2018-04-25T16:00:06.204Z,3.00
2018-04-25T16:02:33.079Z,2.83
2018-04-25T16:05:00.012Z,2.70
2018-04-25T16:07:27.035Z,2.63
2018-04-25T16:09:55.958Z,2.80
2018-04-25T16:12:23.201Z,3.00
2018-04-25T16:14:50.108Z,2.80
2018-04-25T16:20:04.595Z,3.17
2018-04-25T16:22:31.863Z,3.37
2018-04-25T16:24:58.720Z,2.93
2018-04-25T16:29:59.115Z,3.37
2018-04-25T16:32:25.976Z,3.03
2018-04-25T16:34:52.835Z,3.00
2018-04-25T16:37:19.697Z,2.97
2018-04-25T16:39:46.541Z,3.00
2018-04-25T16:42:13.428Z,3.43
2018-04-25T16:44:40.356Z,3.17
2018-04-25T16:47:07.203Z,3.33
2018-04-25T16:49:34.076Z,3.17
2018-04-25T16:52:01.009Z,2.80
2018-04-25T16:54:28.006Z,3.10
2018-04-25T16:56:54.940Z,3.90
2018-04-25T16:59:21.900Z,3.30
2018-04-25T17:01:48.736Z,2.97
2018-04-25T17:04:15.613Z,3.63
2018-04-25T17:06:42.477Z,3.50
2018-04-25T17:09:09.333Z,2.80
2018-04-25T17:11:37.606Z,4.07
2018-04-25T17:14:04.457Z,3.50
2018-04-25T17:16:31.308Z,3.33
2018-04-25T17:18:58.150Z,3.23
2018-04-25T17:21:25.408Z,3.70
2018-04-25T17:23:52.679Z,3.90
2018-04-25T17:26:19.527Z,3.87
2018-04-25T17:28:46.929Z,3.87
2018-04-25T17:31:13.740Z,3.80
2018-04-25T17:33:40.656Z,3.87
2018-04-25T17:36:07.622Z,3.83
2018-04-25T17:44:06.276Z,3.23
2018-04-25T17:46:35.502Z,3.20
2018-04-25T17:51:58.764Z,3.40
2018-04-25T17:54:25.647Z,2.80
2018-04-25T17:56:52.659Z,2.17
2018-04-25T17:59:19.535Z,1.57
2018-04-25T18:01:46.370Z,1.43
2018-04-25T18:04:13.215Z,1.20
2018-04-25T18:06:40.523Z,2.00
2018-04-25T18:09:07.484Z,1.20
2018-04-25T18:11:34.402Z,1.40
2018-04-25T18:14:01.164Z,1.70
2018-04-25T18:16:28.434Z,1.30
2018-04-25T18:18:55.297Z,1.40
2018-04-25T18:21:22.170Z,1.20
2018-04-25T18:23:49.071Z,1.20
2018-04-25T18:26:15.926Z,1.33
2018-04-25T18:28:42.766Z,1.40
2018-04-25T18:31:09.619Z,1.20
2018-04-25T18:33:36.486Z,1.23
2018-04-25T18:36:03.382Z,1.50
2018-04-25T18:38:30.626Z,1.40
2018-04-25T18:40:57.508Z,1.57
2018-04-25T18:43:24.819Z,1.47
2018-04-25T18:45:51.681Z,1.43
2018-04-25T18:48:18.598Z,1.33
2018-04-25T18:50:45.855Z,1.50
2018-04-25T18:53:12.711Z,1.50
2018-04-25T18:55:39.989Z,1.20
2018-04-25T18:58:07.375Z,1.27
2018-04-25T19:00:34.233Z,1.40
2018-04-25T19:03:01.208Z,1.47
2018-04-25T19:05:28.162Z,1.60
2018-04-25T19:07:55.003Z,1.57
2018-04-25T19:10:22.034Z,1.50
2018-04-25T19:12:49.326Z,1.53
2018-04-25T19:15:16.264Z,1.30
2018-04-25T19:17:43.043Z,1.50
2018-04-25T19:20:09.929Z,1.47
2018-04-25T19:25:11.484Z,1.60
2018-04-25T19:27:38.344Z,1.50
2018-04-25T19:30:05.234Z,1.70
2018-04-25T19:32:32.182Z,1.60
2018-04-25T19:34:59.010Z,2.40
2018-04-25T19:37:25.891Z,1.90
2018-04-25T19:39:52.791Z,1.80
2018-04-25T19:42:19.707Z,1.90
2018-04-25T19:44:46.689Z,1.63
2018-04-25T19:47:13.519Z,2.17
2018-04-25T19:49:40.348Z,2.77
2018-04-25T19:52:07.670Z,2.50
2018-04-25T19:54:34.502Z,2.67
2018-04-25T19:57:01.371Z,3.57
2018-04-25T19:59:28.216Z,3.70
2018-04-25T20:01:55.363Z,3.50
2018-04-25T20:04:22.643Z,3.40
2018-04-25T20:06:49.490Z,3.70
2018-04-25T20:09:16.367Z,3.60
2018-04-25T20:11:43.239Z,3.10
2018-04-25T20:14:10.179Z,3.20
2018-04-25T20:16:37.020Z,3.20
2018-04-25T20:19:03.982Z,3.70
2018-04-25T20:21:30.867Z,3.03
2018-04-25T20:23:57.704Z,3.30
2018-04-25T20:26:24.620Z,3.20
2018-04-25T20:28:51.447Z,3.80
2018-04-25T20:31:18.295Z,3.77
2018-04-25T20:33:45.173Z,3.33
2018-04-25T20:36:12.087Z,2.83
2018-04-25T20:38:38.947Z,3.93
2018-04-25T20:41:05.947Z,2.80
2018-04-25T20:43:32.864Z,3.60
2018-04-25T20:45:59.707Z,3.03
2018-04-25T20:48:26.681Z,3.00
2018-04-25T20:50:53.575Z,3.60
2018-04-25T20:53:20.519Z,3.70
2018-04-25T20:55:47.443Z,3.00
2018-04-25T20:58:14.288Z,2.97
2018-04-25T21:00:41.647Z,3.90
2018-04-25T21:03:08.966Z,3.57
2018-04-25T21:05:35.818Z,3.83
2018-04-25T21:08:02.665Z,3.60
2018-04-25T21:10:29.523Z,3.60
2018-04-25T21:12:56.366Z,3.80
2018-04-25T21:15:23.232Z,3.03
2018-04-25T21:17:50.074Z,3.40
2018-04-25T21:20:16.947Z,3.53
2018-04-25T21:22:43.807Z,3.13
2018-04-25T21:25:10.677Z,3.13
2018-04-25T21:27:37.710Z,3.20
2018-04-25T21:30:04.979Z,3.40
2018-04-25T21:32:31.820Z,3.17
2018-04-25T21:34:59.082Z,2.77
2018-04-25T21:37:26.318Z,2.70
2018-04-25T21:39:53.170Z,2.60
2018-04-25T21:42:20.094Z,3.00
2018-04-25T21:44:46.935Z,2.70
2018-04-25T21:47:13.794Z,2.23
2018-04-25T21:49:40.635Z,2.97
2018-04-25T21:52:07.893Z,3.60
2018-04-25T21:54:35.130Z,3.00
2018-04-25T21:57:01.987Z,2.70
2018-04-25T21:59:28.903Z,2.97
2018-04-25T22:01:55.963Z,3.00
2018-04-25T22:04:22.822Z,3.67
2018-04-25T22:06:49.782Z,3.37
2018-04-25T22:09:16.648Z,3.40
2018-04-25T22:11:43.611Z,3.37
2018-04-25T22:14:10.563Z,3.63
2018-04-25T22:16:37.423Z,3.70
2018-04-25T22:19:04.294Z,2.90
2018-04-25T22:21:31.230Z,2.83
2018-04-25T22:23:58.063Z,3.53
2018-04-25T22:26:25.355Z,2.90
2018-04-25T22:28:52.232Z,3.20
2018-04-25T22:31:19.099Z,3.00
2018-04-25T22:33:45.943Z,3.00
2018-04-25T22:36:12.801Z,3.20
2018-04-25T22:38:39.648Z,2.80
2018-04-25T22:41:07.288Z,3.70
2018-04-25T22:43:34.091Z,3.17
2018-04-25T22:46:00.939Z,3.07
2018-04-25T22:48:27.809Z,3.17
2018-04-25T22:50:54.646Z,2.80
2018-04-25T22:53:21.503Z,4.00
2018-04-25T22:55:48.455Z,3.17
2018-04-25T22:58:15.407Z,3.00
2018-04-25T23:00:42.253Z,2.80
2018-04-25T23:03:09.131Z,3.80
2018-04-25T23:05:35.994Z,3.80
2018-04-25T23:08:02.927Z,3.40
2018-04-25T23:10:29.760Z,3.20
2018-04-25T23:12:56.618Z,3.20
2018-04-25T23:15:23.534Z,3.63
2018-04-25T23:17:50.436Z,3.07
2018-04-25T23:20:17.694Z,1.70
2018-04-25T23:22:44.734Z,1.40
2018-04-25T23:25:12.017Z,1.80
2018-04-25T23:27:39.036Z,1.80
2018-04-25T23:30:05.978Z,1.30
2018-04-25T23:32:32.840Z,1.47
2018-04-25T23:34:59.809Z,1.30
2018-04-25T23:37:26.728Z,1.40
2018-04-25T23:39:53.649Z,1.23
2018-04-25T23:42:20.540Z,1.33
2018-04-25T23:44:47.803Z,1.47
2018-04-25T23:47:14.679Z,1.47
2018-04-25T23:49:41.936Z,1.37
2018-04-25T23:52:09.258Z,1.50
2018-04-25T23:54:36.100Z,1.37
2018-04-25T23:57:02.957Z,1.40
2018-04-25T23:59:29.832Z,1.37
